Reedsport, Oregon
Current Conditions -  °F | °C
As of 8:15 AM on Sunday 23 Nov 2014 (Local Time) from KOTH Reporting Station
Scattered Clouds Scattered Clouds  
Wind Chill: 42°   Ceiling: Unl
Heat Index: 46°   Visibility: 10mi
Dew Point: 46°   Wind: 8mph
Humidity: 100%   Direction: 160°SSE
Pressure: 30.38"   Gusts: NA
Location:  43.7°N, 124.1°W
Report Text: KOTH 231615Z 16007KT 10SM SCT050 08/08 A3038 RMK AO1
Loading
Personal Weather Stations






























Interactive Weather Map New forecast layout! Learn more

10-Day Weather Forecast

Advertisements
Track Severe Weather on mobile